Latest Coastal Weather Observations for Low Head

IDT60701

Issued at 2:52 am EDT Saturday 16 November 2019 (issued every 10 minutes, with the page automatically refreshed every 10 minutes)

About coastal observations | Map of coastal stations | Coastal observations for TAS | Marine services | Other Formats
Station Details ID: 091293 Name: LOW HEAD Lat: -41.05 Lon: 146.79 Height: 3.0 m
Data from the previous 72 hours. | See also: Recent months at Low Head
Date/Time
EDT
Wind Sea
Height
m
Swell Vis
km
Cloud Weather Temp
°C
Press
hPa
Rain since
9am
mm
Dir  Spd
kts
Gust
kts
Height
m
Period
s
Dir
16/02:30am W 23 28 - - - - - - - 10.2 1009.0 0.0
16/02:00am W 25 29 - - - - - - - 10.1 1008.8 0.0
16/01:30am W 25 30 - - - - - - - 10.4 1008.9 0.0
16/01:00am W 27 31 - - - - - - - 10.1 1009.1 0.0
16/12:30am W 26 30 - - - - - - - 10.2 1009.1 0.0
16/12:00am W 24 29 - - - - - - - 10.4 1008.9 0.0
 
Date/Time
EDT
Wind Sea
Height
m
Swell Vis
km
Cloud Weather Temp
°C
Press
hPa
Rain since
9am
mm
Dir  Spd
kts
Gust
kts
Height
m
Period
s
Dir
15/11:30pm W 26 29 - - - - - - - 10.6 1008.8 0.0
15/11:00pm W 27 31 - - - - - - - 10.9 1008.8 0.0
15/10:30pm W 25 28 - - - - - - - 10.7 1008.5 0.0
15/10:00pm W 26 30 - - - - - - - 11.1 1008.4 0.0
15/09:30pm W 27 32 - - - - - - - 11.2 1008.1 0.0
15/09:00pm W 29 33 - - - - - - - 11.6 1007.5 0.0
15/08:30pm W 26 30 - - - - - - - 11.7 1007.1 0.0
15/08:00pm W 28 32 - - - - - - - 12.1 1006.7 0.0
15/07:30pm W 29 35 - - - - - - - 12.6 1006.1 0.0
15/07:00pm WSW 24 29 - - - - - - - 13.0 1005.5 0.0
15/06:30pm W 26 32 - - - - - - - 13.3 1005.0 0.0
15/06:00pm W 28 34 - - - - - - - 13.6 1004.4 0.0
15/05:30pm W 27 32 - - - - - - - 13.5 1004.0 0.0
15/05:00pm W 27 31 - - - - - - - 13.4 1003.6 0.0
15/04:30pm W 31 37 - - - - - - - 13.4 1003.4 0.0
15/04:00pm W 25 33 - - - - - - - 13.0 1003.2 0.0
15/03:30pm WNW 24 29 - - - - - - - 13.8 1002.8 0.0
15/03:00pm WNW 26 31 - - - - - - - 14.3 1002.7 0.0
15/02:30pm W 26 32 - - - - - - - 13.8 1002.6 0.0
15/02:00pm W 25 30 - - - - - - - 14.6 1002.4 0.0
15/01:46pm WNW 20 30 - - - - - - - 14.5 1002.4 0.0
15/01:30pm WNW 23 26 - - - - - - - 15.0 1002.4 0.0
15/01:00pm W 23 27 - - - - - - - 14.0 1002.3 0.0
15/12:30pm WNW 24 29 - - - - - - - 14.9 1002.5 0.0
15/12:00pm WNW 26 31 - - - - - - - 14.4 1002.7 0.0
15/11:30am WNW 22 26 - - - - - - - 14.3 1003.1 0.0
15/11:00am W 25 30 - - - - - - - 13.7 1003.1 0.0
15/10:30am W 25 30 - - - - - - - 13.4 1003.0 0.0
15/10:00am W 26 30 - - - - - - - 13.2 1002.9 0.0
15/09:30am W 24 28 - - - - - - - 12.9 1002.9 0.0
15/09:00am WNW 20 24 - - - - - - - 13.1 1003.1 0.0
15/08:30am W 23 27 - - - - - - - 12.7 1002.9 0.0
15/08:00am WNW 24 28 - - - - - - - 12.3 1002.4 0.0
15/07:30am WNW 25 30 - - - - - - - 12.2 1002.4 0.0
15/07:00am WNW 23 27 - - - - - - - 12.0 1002.2 0.0
15/06:30am WNW 24 29 - - - - - - - 11.7 1001.9 0.0
15/06:00am WNW 25 31 - - - - - - - 11.8 1001.7 0.0
15/05:30am WNW 27 32 - - - - - - - 11.9 1001.3 0.0
15/05:00am WNW 27 31 - - - - - - - 11.8 1001.3 0.0
15/04:30am WNW 26 30 - - - - - - - 12.0 1001.6 0.0
15/04:00am WNW 27 32 - - - - - - - 12.0 1001.4 0.0
15/03:30am WNW 27 32 - - - - - - - 12.1 1001.4 0.0
15/03:00am WNW 29 34 - - - - - - - 12.1 1001.4 0.0
15/02:30am WNW 30 35 - - - - - - - 12.2 1001.7 0.0
15/02:00am WNW 29 35 - - - - - - - 12.3 1001.9 0.0
15/01:30am WNW 32 37 - - - - - - - 12.3 1002.3 0.0
15/01:00am W 29 34 - - - - - - - 12.5 1002.2 0.0
15/12:30am W 30 39 - - - - - - - 12.5 1002.5 0.0
15/12:00am WNW 30 35 - - - - - - - 12.4 1002.6 0.0
 
Date/Time
EDT
Wind Sea
Height
m
Swell Vis
km
Cloud Weather Temp
°C
Press
hPa
Rain since
9am
mm
Dir  Spd
kts
Gust
kts
Height
m
Period
s
Dir
14/11:30pm WNW 29 35 - - - - - - - 12.4 1003.2 0.0
14/11:00pm WNW 31 36 - - - - - - - 12.5 1003.2 0.0
14/10:30pm WNW 32 39 - - - - - - - 12.6 1003.5 0.0
14/10:00pm WNW 31 37 - - - - - - - 12.7 1003.7 0.0
14/09:30pm WNW 32 37 - - - - - - - 12.8 1003.9 0.0
14/09:00pm WNW 30 37 - - - - - - - 12.8 1004.1 0.0
14/08:30pm WNW 29 36 - - - - - - - 12.8 1004.2 0.0
14/08:00pm WNW 29 36 - - - - - - - 12.8 1004.5 0.0
14/07:30pm WNW 27 33 - - - - - - - 13.0 1004.7 0.0
14/07:00pm WNW 28 35 - - - - - - - 13.2 1004.7 0.0
14/06:30pm WNW 28 33 - - - - - - - 13.2 1004.5 0.0
14/06:00pm WNW 26 32 - - - - - - - 13.6 1004.8 0.0
14/05:30pm WNW 26 31 - - - - - - - 13.9 1004.7 0.0
14/05:00pm WNW 28 33 - - - - - - - 14.2 1004.8 0.0
14/04:30pm WNW 30 37 - - - - - - - 14.2 1004.5 0.0
14/04:00pm WNW 31 38 - - - - - - - 14.5 1004.3 0.0
14/03:30pm WNW 31 38 - - - - - - - 15.0 1004.4 0.0
14/03:00pm WNW 28 32 - - - - - - - 14.8 1004.8 0.0
14/02:30pm WNW 31 37 - - - - - - - 14.9 1004.9 0.0
14/02:00pm WNW 29 35 - - - - - - - 14.9 1004.8 0.0
14/01:30pm WNW 28 34 - - - - - - - 14.9 1004.9 0.0
14/01:00pm WNW 29 37 - - - - - - - 14.6 1005.2 0.0
14/12:30pm WNW 29 35 - - - - - - - 14.4 1005.4 0.0
14/12:00pm WNW 28 33 - - - - - - - 14.6 1005.4 0.0
14/11:30am WNW 29 36 - - - - - - - 14.2 1005.4 0.0
14/11:00am WNW 27 32 - - - - - - - 13.9 1005.7 0.0
14/10:30am NW 26 31 - - - - - - - 13.5 1005.9 0.0
14/10:00am NW 23 29 - - - - - - - 13.1 1006.0 0.0
14/09:30am NW 24 28 - - - - - - - 13.3 1006.3 0.0
14/09:00am WNW 24 29 - - - - - - - 12.9 1006.5 0.0
14/08:30am WNW 25 30 - - - - - - - 12.7 1006.4 0.0
14/08:00am WNW 24 29 - - - - - - - 12.5 1006.4 0.0
14/07:30am WNW 24 29 - - - - - - - 12.4 1006.3 0.0
14/07:00am WNW 24 29 - - - - - - - 12.2 1006.3 0.0
14/06:30am WNW 24 28 - - - - - - - 12.3 1006.4 0.0
14/06:00am WNW 24 30 - - - - - - - 12.3 1006.2 0.0
14/05:30am WNW 23 29 - - - - - - - 12.2 1006.1 0.0
14/05:00am WNW 23 29 - - - - - - - 12.2 1006.2 0.0
14/04:30am WNW 22 27 - - - - - - - 12.3 1006.4 0.0
14/04:00am WNW 23 27 - - - - - - - 12.1 1006.8 0.0
14/03:30am WNW 23 28 - - - - - - - 12.0 1007.0 0.0
14/03:00am WNW 20 24 - - - - - - - 11.9 1007.5 0.0
14/02:30am WNW 22 27 - - - - - - - 11.8 1007.6 0.0
14/02:00am WNW 22 25 - - - - - - - 11.9 1007.7 0.0
14/01:30am WNW 23 26 - - - - - - - 12.0 1008.0 0.0
14/01:00am WNW 21 24 - - - - - - - 12.2 1007.9 0.0
14/12:30am WNW 18 21 - - - - - - - 12.2 1008.1 0.0
14/12:00am W 19 25 - - - - - - - 12.1 1008.1 0.0
 
Date/Time
EDT
Wind Sea
Height
m
Swell Vis
km
Cloud Weather Temp
°C
Press
hPa
Rain since
9am
mm
Dir  Spd
kts
Gust
kts
Height
m
Period
s
Dir
13/11:30pm W 25 31 - - - - - - - 12.3 1008.2 0.0
13/11:00pm W 27 31 - - - - - - - 12.4 1007.7 0.0
13/10:30pm W 26 30 - - - - - - - 12.4 1007.7 0.0
13/10:00pm W 23 28 - - - - - - - 12.6 1007.7 0.0
13/09:30pm W 20 26 - - - - - - - 12.7 1007.7 0.0
13/09:00pm W 21 27 - - - - - - - 12.9 1007.2 0.0
13/08:30pm W 23 28 - - - - - - - 13.1 1006.6 0.0
13/08:00pm W 23 28 - - - - - - - 13.3 1006.0 0.0
13/07:30pm W 24 29 - - - - - - - 13.6 1005.3 0.0
13/07:00pm W 25 31 - - - - - - - 14.0 1004.7 0.0
13/06:30pm W 27 31 - - - - - - - 14.5 1004.1 0.0
13/06:00pm WSW 32 39 - - - - - - - 14.6 1003.6 0.0
13/05:30pm W 27 35 - - - - - - - 14.5 1003.2 0.0
13/05:22pm W 28 38 - - - - - - - 14.4 1003.2 0.0
13/05:00pm W 31 38 - - - - - - - 14.7 1002.7 0.0
13/04:30pm W 31 36 - - - - - - - 14.7 1002.1 0.0
13/04:02pm W 33 43 - - - - - - - 14.9 1001.9 0.0
13/04:00pm W 34 43 - - - - - - - 14.9 1001.9 0.0
13/03:30pm W 34 42 - - - - - - - 15.0 1001.8 0.0
13/03:17pm W 27 37 - - - - - - - 15.0 1001.7 0.0
13/03:00pm W 29 35 - - - - - - - 15.0 1001.7 0.0
13/02:30pm W 29 37 - - - - - - - 14.9 1001.7 0.0
13/02:00pm WNW 32 39 - - - - - - - 14.2 1001.6 0.0
13/01:30pm WNW 34 42 - - - - - - - 13.9 1001.8 0.0
13/01:00pm WNW 33 43 - - - - - - - 13.4 1002.3 0.0
13/12:56pm WNW 32 43 - - - - - - - 13.4 1002.4 0.0
13/12:30pm WNW 31 39 - - - - - - - 13.0 1002.9 0.0
13/12:00pm WNW 32 39 - - - - - - - 12.4 1003.3 0.0
13/11:30am WNW 31 37 - - - - - - - 12.4 1003.7 0.0
13/11:00am WNW 31 37 - - - - - - - 12.2 1004.3 0.0
13/10:30am WNW 28 33 - - - - - - - 11.8 1004.8 0.0
13/10:00am WNW 27 32 - - - - - - - 11.7 1005.0 0.0
13/09:30am WNW 26 31 - - - - - - - 11.5 1005.2 0.0
13/09:00am WNW 26 30 - - - - - - - 11.6 1005.6 0.0
13/08:30am WNW 24 30 - - - - - - - 10.8 1005.6 0.0
13/08:00am WNW 23 26 - - - - - - - 10.8 1005.8 0.0
13/07:30am W 24 29 - - - - - - - 10.7 1005.8 0.0
13/07:00am WNW 24 29 - - - - - - - 10.2 1005.6 0.0
13/06:30am WNW 23 29 - - - - - - - 9.9 1005.7 0.0
13/06:00am WNW 22 25 - - - - - - - 9.4 1005.3 0.0
13/05:30am W 23 26 - - - - - - - 9.4 1005.3 0.0
13/05:00am W 23 29 - - - - - - - 9.5 1005.3 0.0
13/04:30am W 22 30 - - - - - - - 9.6 1005.0 0.0
13/04:00am W 22 27 - - - - - - - 9.4 1005.3 0.0
13/03:30am W 23 30 - - - - - - - 9.2 1005.5 0.0
13/03:00am W 22 27 - - - - - - - 9.4 1005.4 0.0

Other formats

Comma delimited format used in spreadsheet applications
http://www.bom.gov.au/fwo/IDT60701/IDT60701.95964.axf

JavaScript Object Notation format (JSON) in row-major order
http://www.bom.gov.au/fwo/IDT60701/IDT60701.95964.json

Data quality

Most of these data are generated automatically and are frequently updated. Quality checks on data are not normally performed. It is possible for incorrect values to appear. Refer to information at About Latest Weather Observations and please check the disclaimer before using these data.